createdAt,value
2023-03-03T05:41:47.735Z,8.70
2023-03-03T05:44:15.088Z,8.70
2023-03-03T05:46:42.746Z,8.90
2023-03-03T05:49:09.975Z,7.70
2023-03-03T05:51:36.849Z,8.20
2023-03-03T05:54:03.662Z,8.60
2023-03-03T05:56:30.358Z,7.30
2023-03-03T05:58:57.032Z,8.70
2023-03-03T06:01:23.726Z,7.80
2023-03-03T06:03:50.505Z,9.00
2023-03-03T06:06:18.646Z,9.70
2023-03-03T06:08:45.469Z,8.60
2023-03-03T06:11:16.099Z,9.90
2023-03-03T06:14:03.234Z,8.40
2023-03-03T06:16:30.027Z,7.70
2023-03-03T06:18:58.558Z,8.80
2023-03-03T06:21:25.953Z,9.70
2023-03-03T06:23:53.136Z,9.20
2023-03-03T06:26:20.025Z,8.40
2023-03-03T06:28:49.530Z,9.40
2023-03-03T06:31:16.311Z,9.40
2023-03-03T06:33:43.585Z,9.00
2023-03-03T06:36:13.768Z,7.40
2023-03-03T06:38:43.000Z,9.40
2023-03-03T06:41:10.801Z,9.20
2023-03-03T06:43:46.041Z,7.60
2023-03-03T06:46:21.907Z,7.10
2023-03-03T06:52:14.747Z,8.10
2023-03-03T06:54:42.313Z,8.10
2023-03-03T06:57:33.929Z,7.50
2023-03-03T07:00:25.403Z,8.00
2023-03-03T07:03:02.859Z,8.10
2023-03-03T07:05:35.920Z,8.50
2023-03-03T07:08:24.677Z,7.60
2023-03-03T07:11:07.047Z,7.90
2023-03-03T07:13:53.710Z,7.50
2023-03-03T07:16:26.239Z,7.90
2023-03-03T07:19:04.882Z,7.90
2023-03-03T07:21:34.112Z,8.20
2023-03-03T07:24:01.453Z,9.50
2023-03-03T07:26:32.583Z,7.90
2023-03-03T07:29:16.319Z,8.80
2023-03-03T07:31:46.021Z,10.60
2023-03-03T07:34:42.494Z,9.20
2023-03-03T07:37:37.986Z,10.20
2023-03-03T07:40:29.869Z,9.80
2023-03-03T07:42:57.273Z,10.20
2023-03-03T07:45:36.365Z,10.50
2023-03-03T07:48:12.417Z,12.80
2023-03-03T07:50:41.723Z,14.30
2023-03-03T07:53:37.525Z,14.90
2023-03-03T07:56:29.723Z,15.50
2023-03-03T07:58:56.831Z,13.10
2023-03-03T08:01:57.507Z,13.40
2023-03-03T08:04:29.831Z,11.60
2023-03-03T08:07:02.703Z,10.60
2023-03-03T08:09:43.708Z,10.20
2023-03-03T08:12:24.382Z,9.80
2023-03-03T08:14:51.830Z,10.50
2023-03-03T08:17:25.732Z,12.20
2023-03-03T08:19:52.719Z,11.40
2023-03-03T08:22:34.363Z,11.00
2023-03-03T08:25:02.138Z,11.30
2023-03-03T08:27:29.064Z,11.30
2023-03-03T08:29:55.791Z,11.60
2023-03-03T08:32:22.708Z,12.20
2023-03-03T08:34:49.592Z,15.80
2023-03-03T08:37:18.333Z,13.00
2023-03-03T08:39:45.464Z,16.70
2023-03-03T08:42:14.181Z,13.80
2023-03-03T08:44:42.886Z,12.50
2023-03-03T08:47:09.767Z,9.90
2023-03-03T08:49:39.423Z,10.40
2023-03-03T08:52:06.180Z,15.70
2023-03-03T08:54:32.903Z,13.60
2023-03-03T08:57:00.202Z,11.40
2023-03-03T08:59:27.389Z,11.40
2023-03-03T09:01:54.567Z,10.50
2023-03-03T09:04:21.518Z,10.30
2023-03-03T09:06:49.009Z,10.60
2023-03-03T09:09:15.897Z,9.70
2023-03-03T09:11:44.521Z,11.10
2023-03-03T09:14:13.656Z,9.70
2023-03-03T09:16:50.908Z,11.30
2023-03-03T09:19:21.373Z,10.60
2023-03-03T09:21:48.109Z,10.80
2023-03-03T09:24:25.375Z,11.60
2023-03-03T09:26:53.091Z,10.70
2023-03-03T09:29:34.267Z,9.80
2023-03-03T09:32:26.846Z,9.40
2023-03-03T09:34:54.196Z,10.50
2023-03-03T09:37:28.037Z,10.30
2023-03-03T09:39:55.557Z,10.40
2023-03-03T09:42:34.798Z,10.20
2023-03-03T09:45:23.709Z,10.20
2023-03-03T09:47:50.399Z,10.50
2023-03-03T09:50:57.815Z,10.70
2023-03-03T09:54:08.287Z,9.90
2023-03-03T09:56:43.956Z,9.40
2023-03-03T09:59:45.798Z,8.60
2023-03-03T10:02:24.105Z,10.90
2023-03-03T10:05:23.157Z,10.10
2023-03-03T10:11:09.963Z,10.80
2023-03-03T10:13:48.643Z,10.20
2023-03-03T10:16:33.492Z,9.80
2023-03-03T10:19:10.496Z,9.90
2023-03-03T10:21:42.094Z,9.20
2023-03-03T10:24:14.794Z,9.40
2023-03-03T10:27:09.801Z,10.00
2023-03-03T10:29:52.844Z,9.80
2023-03-03T10:32:27.728Z,9.70
2023-03-03T10:35:26.143Z,12.00
2023-03-03T10:38:17.676Z,17.00
2023-03-03T10:41:09.094Z,25.40
2023-03-03T10:43:45.530Z,21.40
2023-03-03T10:46:32.545Z,21.00
2023-03-03T10:49:02.305Z,12.80
2023-03-03T10:51:41.873Z,18.00
2023-03-03T10:54:21.197Z,12.50
2023-03-03T10:56:57.658Z,13.70
2023-03-03T10:59:31.273Z,10.60
2023-03-03T11:02:08.231Z,10.40
2023-03-03T11:05:11.666Z,10.40
2023-03-03T11:08:11.116Z,13.70
2023-03-03T11:11:15.523Z,10.10
2023-03-03T11:13:53.968Z,8.30
2023-03-03T11:16:37.316Z,7.70
2023-03-03T11:19:29.608Z,7.50
2023-03-03T11:22:08.204Z,12.30
2023-03-03T11:25:04.028Z,9.10
2023-03-03T11:27:47.476Z,9.50
2023-03-03T11:30:29.673Z,8.50
2023-03-03T11:33:02.039Z,8.90
2023-03-03T11:35:47.384Z,10.70
2023-03-03T11:38:39.844Z,12.10
2023-03-03T11:41:13.762Z,12.60
2023-03-03T11:44:19.287Z,13.40
2023-03-03T11:46:54.159Z,13.10
2023-03-03T11:49:33.480Z,9.00
2023-03-03T11:52:06.017Z,11.90
2023-03-03T11:54:44.038Z,8.60
2023-03-03T11:57:27.351Z,8.90
2023-03-03T12:02:51.075Z,8.60
2023-03-03T12:05:55.718Z,9.50
2023-03-03T12:08:25.336Z,10.70
2023-03-03T12:11:10.716Z,9.70
2023-03-03T12:13:57.898Z,11.70
2023-03-03T12:16:28.861Z,11.40
2023-03-03T12:18:58.629Z,11.90
2023-03-03T12:21:29.155Z,13.50
2023-03-03T12:24:03.753Z,13.00
2023-03-03T12:26:35.508Z,12.10
2023-03-03T12:29:11.200Z,12.70
2023-03-03T12:31:45.136Z,11.70
2023-03-03T12:34:33.187Z,12.30
2023-03-03T12:37:10.138Z,12.30
2023-03-03T12:39:43.322Z,14.00
2023-03-03T12:42:31.852Z,11.40
2023-03-03T12:44:58.680Z,11.70
2023-03-03T12:47:37.967Z,13.90
2023-03-03T12:50:37.251Z,13.00
2023-03-03T12:53:10.673Z,12.20
2023-03-03T12:56:06.078Z,11.50
2023-03-03T12:58:55.139Z,12.20
2023-03-03T13:01:21.841Z,10.40
2023-03-03T13:04:19.516Z,12.40
2023-03-03T13:06:53.153Z,13.50
2023-03-03T13:09:54.124Z,12.80
2023-03-03T13:12:40.763Z,13.30
2023-03-03T13:15:12.619Z,14.50
2023-03-03T13:17:43.490Z,12.60
2023-03-03T13:20:29.601Z,13.10
2023-03-03T13:23:21.957Z,14.30
2023-03-03T13:26:10.922Z,14.30
